createdAt,value
2018-06-21T00:01:23.331Z,25.16
2018-06-21T00:05:26.758Z,25.10
2018-06-21T00:09:30.183Z,25.05
2018-06-21T00:13:33.571Z,25.00
2018-06-21T00:17:37.010Z,24.95
2018-06-21T00:21:40.464Z,24.91
2018-06-21T00:25:43.923Z,24.89
2018-06-21T00:29:47.371Z,24.86
2018-06-21T00:33:50.802Z,24.85
2018-06-21T00:37:54.338Z,24.83
2018-06-21T00:41:57.764Z,24.77
2018-06-21T00:46:01.169Z,24.71
2018-06-21T00:50:04.637Z,24.64
2018-06-21T00:54:08.099Z,24.60
2018-06-21T00:58:11.548Z,24.55
2018-06-21T01:02:14.965Z,24.49
2018-06-21T01:06:18.406Z,24.46
2018-06-21T01:10:21.810Z,24.40
2018-06-21T01:14:25.254Z,24.33
2018-06-21T01:18:28.644Z,24.27
2018-06-21T01:22:32.083Z,24.25
2018-06-21T01:26:35.543Z,24.15
2018-06-21T01:30:39.019Z,24.06
2018-06-21T01:34:42.501Z,24.01
2018-06-21T01:38:46.064Z,23.93
2018-06-21T01:42:49.490Z,23.87
2018-06-21T01:46:52.930Z,23.79
2018-06-21T01:50:56.348Z,23.72
2018-06-21T01:54:59.810Z,23.67
2018-06-21T01:59:03.266Z,23.65
2018-06-21T02:03:06.674Z,23.50
2018-06-21T02:07:10.126Z,23.39
2018-06-21T02:11:13.541Z,23.34
2018-06-21T02:15:17.035Z,23.31
2018-06-21T02:19:20.492Z,23.31
2018-06-21T02:23:23.930Z,23.29
2018-06-21T02:27:27.409Z,23.25
2018-06-21T02:31:30.898Z,23.19
2018-06-21T02:35:34.317Z,23.12
2018-06-21T02:39:37.766Z,23.10
2018-06-21T02:43:41.234Z,23.07
2018-06-21T02:47:44.647Z,23.04
2018-06-21T02:51:48.078Z,23.01
2018-06-21T02:55:51.514Z,22.94
2018-06-21T02:59:55.066Z,22.89
2018-06-21T03:03:58.531Z,22.85
2018-06-21T03:08:02.238Z,22.78
2018-06-21T03:12:09.915Z,22.73
2018-06-21T03:16:13.407Z,22.69
2018-06-21T03:20:16.865Z,22.66
2018-06-21T03:24:20.321Z,22.65
2018-06-21T03:28:23.766Z,22.59
2018-06-21T03:32:27.195Z,22.56
2018-06-21T03:36:30.697Z,22.53
2018-06-21T03:40:34.183Z,22.47
2018-06-21T03:44:37.681Z,22.45
2018-06-21T03:48:41.088Z,22.42
2018-06-21T03:52:44.567Z,22.40
2018-06-21T03:56:48.031Z,22.38
2018-06-21T04:00:51.438Z,22.39
2018-06-21T04:04:54.909Z,22.39
2018-06-21T04:08:59.451Z,22.41
2018-06-21T04:13:03.010Z,22.42
2018-06-21T04:17:06.441Z,22.45
2018-06-21T04:21:10.098Z,22.50
2018-06-21T04:25:13.566Z,22.55
2018-06-21T04:29:17.047Z,22.55
2018-06-21T04:33:20.541Z,22.58
2018-06-21T04:37:24.036Z,22.59
2018-06-21T04:41:27.482Z,22.62
2018-06-21T04:45:30.965Z,22.67
2018-06-21T04:49:34.450Z,22.74
2018-06-21T04:53:37.919Z,22.81
2018-06-21T04:57:41.366Z,22.90
2018-06-21T05:01:44.793Z,23.00
2018-06-21T05:05:48.326Z,23.14
2018-06-21T05:09:51.806Z,23.28
2018-06-21T05:13:55.243Z,23.44
2018-06-21T05:17:58.679Z,23.67
2018-06-21T05:22:02.111Z,23.92
2018-06-21T05:26:05.647Z,24.20
2018-06-21T05:30:09.118Z,24.46
2018-06-21T05:34:12.533Z,24.79
2018-06-21T05:38:15.953Z,25.11
2018-06-21T05:42:19.471Z,25.40
2018-06-21T05:46:22.907Z,25.67
2018-06-21T05:50:26.330Z,25.95
2018-06-21T05:54:29.737Z,26.23
2018-06-21T05:58:33.171Z,26.50
2018-06-21T06:02:36.562Z,26.76
2018-06-21T06:06:40.043Z,27.01
2018-06-21T06:10:43.461Z,27.24
2018-06-21T06:14:46.883Z,27.36
2018-06-21T06:18:50.331Z,27.51
2018-06-21T06:22:53.773Z,27.67
2018-06-21T06:26:57.243Z,27.91
2018-06-21T06:31:00.705Z,28.11
2018-06-21T06:35:04.147Z,28.38
2018-06-21T06:39:18.740Z,28.51
2018-06-21T06:43:22.239Z,28.57
2018-06-21T06:47:26.134Z,28.63
2018-06-21T06:51:29.559Z,28.77
2018-06-21T06:55:33.031Z,28.90
2018-06-21T06:59:36.470Z,29.07
2018-06-21T07:03:39.898Z,29.26
2018-06-21T07:07:43.331Z,29.40
2018-06-21T07:11:46.789Z,29.52
2018-06-21T07:15:50.203Z,29.57
2018-06-21T07:19:53.646Z,29.71
2018-06-21T07:23:57.077Z,29.85
2018-06-21T07:28:00.613Z,29.97
2018-06-21T07:32:04.067Z,30.08
2018-06-21T07:36:07.467Z,30.23
2018-06-21T07:40:10.907Z,30.39
2018-06-21T07:44:14.371Z,30.55
2018-06-21T07:48:17.785Z,30.66
2018-06-21T07:52:21.208Z,30.78
2018-06-21T07:56:24.706Z,30.89
2018-06-21T08:00:28.144Z,31.05
2018-06-21T08:04:31.558Z,31.09
2018-06-21T08:08:35.067Z,31.24
2018-06-21T08:12:38.515Z,31.31
2018-06-21T08:16:44.171Z,31.47
2018-06-21T08:20:47.573Z,31.60
2018-06-21T08:24:51.036Z,31.69
2018-06-21T08:28:54.451Z,31.77
2018-06-21T08:32:57.885Z,31.86
2018-06-21T08:37:01.320Z,31.99
2018-06-21T08:41:04.737Z,32.12
2018-06-21T08:45:08.206Z,32.25
2018-06-21T08:49:11.674Z,32.25
2018-06-21T08:53:15.223Z,32.37
2018-06-21T08:57:18.676Z,32.50
2018-06-21T09:01:22.139Z,32.58
2018-06-21T09:05:25.556Z,32.73
2018-06-21T09:09:29.028Z,32.90
2018-06-21T09:13:34.628Z,32.99
2018-06-21T09:17:38.070Z,33.11
2018-06-21T09:21:41.500Z,33.18
2018-06-21T09:25:44.967Z,33.23
2018-06-21T09:29:48.455Z,33.29
2018-06-21T09:33:51.927Z,33.32
2018-06-21T09:38:00.515Z,33.41
2018-06-21T09:42:09.116Z,33.44
2018-06-21T09:46:17.901Z,33.45
2018-06-21T09:50:21.336Z,33.56
2018-06-21T09:54:24.742Z,33.62
2018-06-21T09:58:28.248Z,33.73
2018-06-21T10:02:31.703Z,33.74
2018-06-21T10:06:35.156Z,33.88
2018-06-21T10:10:38.598Z,34.03
2018-06-21T10:14:41.994Z,34.18
2018-06-21T10:18:45.420Z,34.22
2018-06-21T10:22:48.852Z,34.33
2018-06-21T10:26:52.269Z,34.38
2018-06-21T10:30:55.741Z,34.28
2018-06-21T10:34:59.216Z,34.25
2018-06-21T10:39:02.617Z,34.35
2018-06-21T10:43:06.311Z,34.53
2018-06-21T10:47:09.969Z,34.65
2018-06-21T10:51:13.451Z,34.76
2018-06-21T10:55:16.860Z,34.66
2018-06-21T10:59:20.312Z,34.76
2018-06-21T11:03:23.853Z,34.81
2018-06-21T11:07:27.257Z,34.84
2018-06-21T11:11:30.696Z,34.85
2018-06-21T11:15:34.141Z,34.84
2018-06-21T11:19:37.540Z,35.08
2018-06-21T11:23:40.979Z,35.06
2018-06-21T11:27:44.441Z,34.98
2018-06-21T11:31:48.438Z,35.00
2018-06-21T11:35:51.881Z,34.86
2018-06-21T11:39:55.329Z,34.72
2018-06-21T11:43:58.788Z,34.66
2018-06-21T11:48:02.208Z,34.62
2018-06-21T11:52:05.862Z,34.57
2018-06-21T11:56:09.334Z,34.51
2018-06-21T12:00:12.792Z,34.58
2018-06-21T12:04:16.251Z,34.44
2018-06-21T12:08:19.671Z,34.43
2018-06-21T12:12:23.366Z,34.63
2018-06-21T12:16:26.882Z,34.64
2018-06-21T12:20:30.342Z,34.64
2018-06-21T12:24:33.783Z,34.72
2018-06-21T12:28:37.292Z,34.86
2018-06-21T12:32:40.730Z,34.95
2018-06-21T12:36:44.171Z,35.00
2018-06-21T12:40:47.589Z,35.07
2018-06-21T12:44:51.031Z,35.17
2018-06-21T12:48:54.476Z,35.17
2018-06-21T12:52:57.867Z,35.06
2018-06-21T12:57:01.309Z,35.03
2018-06-21T13:01:05.098Z,35.06
2018-06-21T13:05:08.570Z,35.13
2018-06-21T13:10:25.563Z,35.23
2018-06-21T13:14:28.971Z,35.25
2018-06-21T13:18:32.401Z,35.23
2018-06-21T13:22:35.812Z,35.20
2018-06-21T13:26:39.270Z,35.07
2018-06-21T13:30:42.679Z,34.93
2018-06-21T13:34:46.190Z,34.88
2018-06-21T13:38:49.674Z,34.74
2018-06-21T13:42:53.128Z,34.74
2018-06-21T13:46:56.558Z,34.73
2018-06-21T13:50:59.963Z,34.66
2018-06-21T13:55:03.389Z,34.70
2018-06-21T13:59:06.852Z,34.79
2018-06-21T14:03:10.292Z,34.79
2018-06-21T14:07:13.712Z,34.73
2018-06-21T14:11:17.138Z,34.68
2018-06-21T14:15:20.588Z,34.69
2018-06-21T14:19:24.040Z,34.62
2018-06-21T14:23:27.515Z,34.65
2018-06-21T14:27:30.972Z,34.67
2018-06-21T14:31:34.423Z,34.71
2018-06-21T14:35:37.849Z,34.75
2018-06-21T14:39:41.286Z,34.73
2018-06-21T14:43:44.717Z,34.67
2018-06-21T14:47:48.203Z,34.64
2018-06-21T14:51:51.617Z,34.57
2018-06-21T14:55:55.060Z,34.49
2018-06-21T14:59:58.454Z,34.44
2018-06-21T15:04:01.907Z,34.39
2018-06-21T15:08:05.484Z,34.40
2018-06-21T15:12:09.051Z,34.39
2018-06-21T15:16:12.599Z,34.31
2018-06-21T15:20:16.060Z,34.27
2018-06-21T15:24:19.551Z,34.29
2018-06-21T15:28:22.969Z,34.34
2018-06-21T15:32:26.401Z,34.36
2018-06-21T15:36:29.856Z,34.37
2018-06-21T15:40:33.337Z,34.38
2018-06-21T15:44:36.778Z,34.38
2018-06-21T15:48:40.195Z,34.41
2018-06-21T15:52:43.681Z,34.41
2018-06-21T15:56:47.126Z,34.41
2018-06-21T16:00:50.603Z,34.45
2018-06-21T16:04:54.079Z,34.47
2018-06-21T16:08:57.511Z,34.42
2018-06-21T16:13:00.982Z,34.39
2018-06-21T16:17:04.427Z,34.38
2018-06-21T16:21:07.863Z,34.36
2018-06-21T16:25:11.294Z,34.35
2018-06-21T16:29:14.722Z,34.33
2018-06-21T16:33:18.193Z,34.32
2018-06-21T16:37:21.688Z,34.31
2018-06-21T16:41:25.210Z,34.29
2018-06-21T16:45:28.768Z,34.29
2018-06-21T16:49:32.199Z,34.20
2018-06-21T16:53:35.744Z,34.12
2018-06-21T16:57:39.177Z,34.10
2018-06-21T17:01:42.707Z,34.02
2018-06-21T17:05:46.159Z,33.95
2018-06-21T17:09:49.611Z,33.88
2018-06-21T17:13:53.069Z,33.79
2018-06-21T17:17:56.486Z,33.66
2018-06-21T17:21:59.927Z,33.57
2018-06-21T17:26:03.383Z,33.50
2018-06-21T17:30:06.842Z,33.45
2018-06-21T17:34:10.271Z,33.39
2018-06-21T17:38:13.697Z,33.35
2018-06-21T17:42:17.138Z,33.29
2018-06-21T17:46:20.802Z,33.26
2018-06-21T17:50:24.242Z,33.18
2018-06-21T17:54:27.721Z,33.16
2018-06-21T17:58:31.160Z,33.10
2018-06-21T18:02:34.661Z,33.05
2018-06-21T18:06:38.283Z,32.94
2018-06-21T18:10:41.899Z,32.80
2018-06-21T18:14:45.282Z,32.68
2018-06-21T18:18:48.718Z,32.58
2018-06-21T18:22:52.152Z,32.45
2018-06-21T18:26:55.610Z,32.35
2018-06-21T18:30:59.095Z,32.28
2018-06-21T18:35:02.605Z,32.17
2018-06-21T18:39:08.278Z,32.09
2018-06-21T18:43:11.892Z,31.98
2018-06-21T18:47:15.375Z,31.86
2018-06-21T18:51:18.826Z,31.75
2018-06-21T18:55:22.259Z,31.65
2018-06-21T18:59:25.715Z,31.56
2018-06-21T19:03:29.214Z,31.48
2018-06-21T19:07:34.189Z,31.38
2018-06-21T19:11:42.802Z,31.28
2018-06-21T19:15:46.289Z,31.20
2018-06-21T19:19:49.743Z,31.10
2018-06-21T19:23:53.299Z,30.81
2018-06-21T19:27:56.725Z,30.43
2018-06-21T19:32:00.131Z,30.03
2018-06-21T19:36:03.628Z,29.66
2018-06-21T19:40:07.076Z,29.34
2018-06-21T19:44:11.452Z,29.05
2018-06-21T19:48:14.907Z,28.76
2018-06-21T19:52:18.361Z,28.52
2018-06-21T19:56:21.826Z,28.27
2018-06-21T20:00:25.267Z,27.95
2018-06-21T20:04:28.702Z,27.55
2018-06-21T20:08:32.162Z,27.19
2018-06-21T20:12:35.857Z,26.86
2018-06-21T20:16:39.347Z,26.67
2018-06-21T20:20:42.768Z,26.54
2018-06-21T20:24:46.208Z,26.40
2018-06-21T20:28:49.660Z,26.23
2018-06-21T20:32:53.117Z,26.09
2018-06-21T20:36:56.603Z,25.97
2018-06-21T20:41:00.026Z,25.83
2018-06-21T20:45:03.475Z,25.70
2018-06-21T20:49:06.872Z,25.54
2018-06-21T20:53:10.307Z,25.38
2018-06-21T20:57:13.703Z,25.17
2018-06-21T21:01:17.167Z,25.00
2018-06-21T21:05:20.632Z,24.88
2018-06-21T21:09:24.085Z,24.75
2018-06-21T21:13:27.534Z,24.63
2018-06-21T21:17:30.982Z,24.51
2018-06-21T21:21:34.437Z,24.38
2018-06-21T21:25:37.890Z,24.29
2018-06-21T21:29:41.360Z,24.20
2018-06-21T21:33:44.802Z,24.06
2018-06-21T21:37:48.322Z,23.97
2018-06-21T21:41:51.737Z,23.85
2018-06-21T21:45:55.197Z,23.71
2018-06-21T21:49:58.636Z,23.56
2018-06-21T21:54:02.150Z,23.47
2018-06-21T21:58:05.647Z,23.36
2018-06-21T22:02:09.063Z,23.24
2018-06-21T22:06:12.515Z,23.14
2018-06-21T22:10:15.956Z,23.06
2018-06-21T22:14:19.410Z,22.96
2018-06-21T22:18:22.856Z,22.90
2018-06-21T22:22:26.282Z,22.86
2018-06-21T22:26:29.746Z,22.79
2018-06-21T22:30:33.211Z,22.71
2018-06-21T22:34:36.670Z,22.64
2018-06-21T22:38:40.142Z,22.58
2018-06-21T22:42:43.895Z,22.47
2018-06-21T22:46:47.359Z,22.40
2018-06-21T22:50:50.764Z,22.34
2018-06-21T22:54:54.207Z,22.26
2018-06-21T22:58:57.864Z,22.15
2018-06-21T23:03:01.279Z,22.07
2018-06-21T23:07:04.729Z,22.02
2018-06-21T23:11:08.202Z,21.94
2018-06-21T23:15:11.623Z,21.90
2018-06-21T23:19:25.244Z,21.85
2018-06-21T23:23:28.667Z,21.78
2018-06-21T23:27:32.135Z,21.75
2018-06-21T23:31:35.586Z,21.72
2018-06-21T23:35:39.017Z,21.66
2018-06-21T23:39:42.436Z,21.60
2018-06-21T23:43:45.914Z,21.54
2018-06-21T23:47:49.347Z,21.54
2018-06-21T23:51:52.790Z,21.51
2018-06-21T23:55:56.256Z,21.42
2018-06-21T23:59:59.728Z,21.36
